Buoy 47574

sailwx.info

Track history (hours):
 
Tides and Currents Weather Stations Pressure Air Temp Water Temp Dewpoint Dewpoint Depression Visibility Wind Speed Wind Dir Waves Ship Positions

Drifting buoy 47574

Last reported at 2017-Nov-19 15:00 UTC. Time now 2017-Nov-19 16:03 UTC.
Position N 38°10' W 018°14'.

Barometer 1021.0 mb
Water temperature 20.1 ° C

Date/timePositionNaut miles runAvg speedWind from/ knotsBaromVisibWave heightAir tempDewpointWater temp
2017-Nov-19 15:00N 38°10' W 018°14'0 0.0 1021.0 20.1
2017-Nov-19 14:00N 38°10' W 018°14'1 0.8 1021.6 20.1
2017-Nov-19 13:00N 38°09' W 018°13'0 0.0 1022.4 20.0
2017-Nov-19 12:00N 38°09' W 018°13'0 0.5 1022.9 20.0
2017-Nov-19 11:00N 38°09' W 018°13'0 0.5 1023.1 20.0
2017-Nov-19 10:00N 38°09' W 018°12'0 0.5 1023.1 19.9
2017-Nov-19 09:00N 38°09' W 018°11'0 0.5 1022.6 19.9
2017-Nov-19 08:00N 38°09' W 018°11'1 0.8 1021.9 19.9
2017-Nov-19 07:00N 38°10' W 018°10'0 0.5 1021.1 19.9
2017-Nov-19 06:00N 38°10' W 018°10'0 0.0 1021.1 19.9
2017-Nov-19 05:00N 38°10' W 018°10'1 0.8 1020.9 19.9
2017-Nov-19 04:00N 38°10' W 018°09'0 0.0 1021.0 19.9
2017-Nov-19 03:00N 38°10' W 018°09'1 0.6 1021.2 19.9
2017-Nov-19 02:00N 38°10' W 018°09'0 0.5 1021.1 20.0
2017-Nov-19 01:00N 38°10' W 018°08'0 0.0 1021.6 20.0
2017-Nov-19 00:00N 38°10' W 018°08'0 0.0 1021.8 20.0
2017-Nov-18 23:00N 38°10' W 018°08'1 0.8 1022.0 20.0
2017-Nov-18 22:00N 38°09' W 018°08'0 0.0 1021.8 20.1
2017-Nov-18 21:00N 38°09' W 018°08'0 0.5 1021.7 20.1
2017-Nov-18 20:00N 38°09' W 018°07'0 0.5 1021.3 20.1
2017-Nov-18 19:00N 38°09' W 018°07'0 0.5 1020.9 20.1
2017-Nov-18 18:00N 38°09' W 018°06'1 0.8 1020.8 20.1
2017-Nov-18 17:00N 38°10' W 018°05'0 0.0 1020.7 20.1
2017-Nov-18 16:00N 38°10' W 018°05'0 0.5 1020.6 20.0
2017-Nov-18 15:00N 38°10' W 018°05'0 0.0 1020.6 20.0
2017-Nov-18 14:00N 38°10' W 018°05'1 0.8 1021.0 20.0
2017-Nov-18 13:00N 38°09' W 018°04'0 0.5 1021.4 20.0
2017-Nov-18 12:00N 38°09' W 018°04'0 0.0 1021.8 20.0
2017-Nov-18 11:00N 38°09' W 018°04'0 0.5 1021.5 20.0
2017-Nov-18 10:00N 38°09' W 018°03'0 0.5 1021.2 20.0
2017-Nov-18 09:00N 38°09' W 018°02'0 0.5 1020.6 20.0
2017-Nov-18 08:00N 38°09' W 018°02'1 0.6 1020.3 20.0
2017-Nov-18 07:00N 38°10' W 018°02'0 0.0 1020.0 20.0
2017-Nov-18 06:00N 38°10' W 018°02'0 0.5 1020.3 20.0
2017-Nov-18 05:00N 38°10' W 018°01'0 0.0 1020.3 20.0
2017-Nov-18 04:00N 38°10' W 018°01'0 0.0 1020.4 20.0
2017-Nov-18 03:00N 38°10' W 018°01'1 0.6 1020.6 20.0
2017-Nov-18 02:00N 38°09' W 018°01'0 0.5 1020.6 20.0
2017-Nov-18 01:00N 38°09' W 018°01'1 0.6 1021.0 20.0
2017-Nov-18 00:00N 38°08' W 018°01'1 0.8 1021.2 20.0
2017-Nov-17 23:00N 38°08' W 018°00'0 0.5 1021.2 20.0
2017-Nov-17 22:00N 38°08' W 017°59'1 1.1 1021.3 20.0
2017-Nov-17 21:00N 38°07' W 017°58'1 1.1 1021.0 20.0
2017-Nov-17 20:00N 38°08' W 017°57'0 0.5 1020.8 20.0
2017-Nov-17 19:00N 38°08' W 017°56'1 0.8 1020.6 20.0
2017-Nov-17 18:00N 38°08' W 017°56'0 0.0 1020.2 20.0
2017-Nov-17 17:00N 38°08' W 017°56'0 0.0 1020.1 20.0
2017-Nov-17 16:00N 38°08' W 017°56'0 0.0 1019.8 20.0
2017-Nov-17 15:00N 38°08' W 017°56'0 0.0 1019.9 20.0
2017-Nov-17 14:00N 38°08' W 017°56'0 0.0 1020.2 20.0
2017-Nov-17 13:00N 38°08' W 017°56'1 0.8 1021.1 20.0
2017-Nov-17 12:00N 38°08' W 017°55'1 0.6 1021.8 20.0
2017-Nov-17 11:00N 38°07' W 017°55'0 0.5 1021.8 20.0
2017-Nov-17 10:00N 38°07' W 017°55'0 0.5 1021.3 20.0
2017-Nov-17 09:00N 38°07' W 017°54'0 0.5 1021.4 20.0
2017-Nov-17 08:00N 38°07' W 017°53'0 0.5 1020.9 19.9
2017-Nov-17 07:00N 38°07' W 017°53'0 0.5 1020.7 20.0
2017-Nov-17 06:00N 38°07' W 017°52'0 0.5 1020.5 20.0
2017-Nov-17 05:00N 38°07' W 017°52'0 0.0 1020.2 20.0
2017-Nov-17 04:00N 38°07' W 017°52'0 0.2 1020.1 20.0
2017-Nov-17 02:00N 38°07' W 017°51'1 0.8 1020.3 20.0
2017-Nov-17 01:00N 38°07' W 017°50'0 0.0 1020.7 20.0
2017-Nov-17 00:00N 38°07' W 017°50'1 0.8 1021.1 20.0
2017-Nov-16 23:00N 38°06' W 017°50'0 0.5 1021.1 20.1
2017-Nov-16 22:00N 38°06' W 017°49'0 0.5 1021.0 20.1
2017-Nov-16 21:00N 38°06' W 017°49'0 0.5 1020.6 20.1
2017-Nov-16 20:00N 38°06' W 017°48'1 0.8 1020.4 20.1
2017-Nov-16 19:00N 38°07' W 017°47'0 0.5 1020.2 20.1
2017-Nov-16 18:00N 38°07' W 017°47'0 0.5 1019.6 20.1
2017-Nov-16 17:00N 38°07' W 017°46'0 0.0 1019.5 20.1
2017-Nov-16 16:00N 38°07' W 017°46'0 0.5 1019.3 20.1
2017-Nov-16 15:00N 38°07' W 017°46'1 0.6 1019.0 20.0
2017-Nov-16 14:00N 38°06' W 017°46'1 0.6 1019.2 20.0
2017-Nov-16 13:00N 38°05' W 017°46'0 0.5 1019.7 20.0
2017-Nov-16 12:00N 38°05' W 017°45'1 0.6 1020.3 20.0
2017-Nov-16 11:00N 38°05' W 017°45'0 0.5 1020.5 20.0
2017-Nov-16 10:00N 38°05' W 017°44'0 0.0 1020.3 20.0
2017-Nov-16 09:00N 38°05' W 017°44'1 0.8 1019.8 20.0
2017-Nov-16 08:00N 38°04' W 017°44'0 0.5 1019.3 20.0
2017-Nov-16 07:00N 38°04' W 017°43'0 0.5 1018.9 20.0
2017-Nov-16 06:00N 38°04' W 017°43'0 0.5 1018.4 20.0
2017-Nov-16 05:00N 38°04' W 017°42'0 0.0 1018.3 20.0
2017-Nov-16 04:00N 38°04' W 017°42'0 0.5 1018.4 20.0
2017-Nov-16 03:00N 38°04' W 017°41'0 0.0 1018.5 20.0
2017-Nov-16 02:00N 38°04' W 017°41'0 0.0 1018.6 20.0
2017-Nov-16 01:00N 38°04' W 017°41'1 0.6 1019.1 20.0
2017-Nov-16 00:00N 38°04' W 017°41'0 0.5 1019.1 20.0
2017-Nov-15 23:00N 38°04' W 017°41'0 0.0 1019.4 20.0
2017-Nov-15 22:00N 38°04' W 017°41'0 0.5 1019.5 20.0
2017-Nov-15 21:00N 38°04' W 017°40'0 0.5 1019.3 20.1
2017-Nov-15 20:00N 38°04' W 017°40'1 0.6 1019.0 20.1
2017-Nov-15 19:00N 38°04' W 017°40'0 0.5 1018.5 20.1
2017-Nov-15 18:00N 38°04' W 017°39'0 0.5 1017.6 20.0
2017-Nov-15 17:00N 38°04' W 017°40'0 0.5 1017.4 20.0
2017-Nov-15 16:00N 38°04' W 017°39'1 0.6 1017.2 20.1
2017-Nov-15 15:00N 38°04' W 017°39'0 0.0 1017.6 20.1
2017-Nov-15 14:00N 38°04' W 017°39'1 0.6 1018.5 20.1
2017-Nov-15 13:00N 38°03' W 017°39'0 0.5 1019.1 20.1
2017-Nov-15 12:00N 38°03' W 017°38'1 0.8 1019.9 20.1
2017-Nov-15 11:00N 38°02' W 017°38'0 0.5 1020.2 20.1
2017-Nov-15 10:00N 38°02' W 017°37'0 0.5 1020.5 20.1
2017-Nov-15 09:00N 38°02' W 017°37'0 0.5 1020.1 20.1
2017-Nov-15 08:00N 38°02' W 017°36'1 0.8 1019.9 20.1
2017-Nov-15 07:00N 38°03' W 017°35'0 0.0 1019.7 20.1
2017-Nov-15 06:00N 38°03' W 017°35'1 0.8 1019.3 20.1
2017-Nov-15 05:00N 38°04' W 017°35'0 0.0 1019.3 20.1
2017-Nov-15 04:00N 38°04' W 017°35'1 0.8 1019.6 20.1
2017-Nov-15 03:00N 38°04' W 017°34'0 0.0 1019.7 20.1
2017-Nov-15 02:00N 38°04' W 017°34'0 0.0 1019.8 20.1
2017-Nov-15 01:00N 38°04' W 017°34'0 0.5 1020.1 20.1
2017-Nov-15 00:00N 38°04' W 017°34'0 0.5 1020.6 20.1
2017-Nov-14 23:00N 38°04' W 017°33'1 0.8 1021.0 20.1
2017-Nov-14 22:00N 38°05' W 017°32'0 0.0 1021.5 20.1
2017-Nov-14 21:00N 38°05' W 017°32'1 0.8 1021.1 20.1
2017-Nov-14 20:00N 38°05' W 017°32'0 0.0 1021.0 20.1
2017-Nov-14 19:00N 38°05' W 017°32'1 0.6 1021.0 20.2
2017-Nov-14 18:00N 38°06' W 017°32'0 0.5 1020.7 20.2
2017-Nov-14 17:00N 38°06' W 017°31'0 0.0 1020.6 20.2
2017-Nov-14 16:00N 38°06' W 017°31'1 0.6 1020.8 20.2
2017-Nov-14 15:00N 38°05' W 017°31'0 0.0 1021.1 20.2
2017-Nov-14 14:00N 38°05' W 017°31'0 0.5 1021.7 20.2
2017-Nov-14 13:00N 38°05' W 017°31'0 0.5 1022.3 20.2
2017-Nov-14 12:00N 38°05' W 017°30'1 0.8 1023.0 20.1
2017-Nov-14 11:00N 38°05' W 017°29'1 1.1 1023.4 20.1
2017-Nov-14 10:00N 38°05' W 017°28'0 0.5 1023.5 20.0
2017-Nov-14 09:00N 38°05' W 017°28'1 0.8 1023.2 20.0
2017-Nov-14 08:00N 38°06' W 017°27'1 0.6 1023.1 20.0
2017-Nov-14 07:00N 38°07' W 017°27'1 0.6 1023.1 20.0
2017-Nov-14 06:00N 38°07' W 017°27'1 0.6 1023.1 20.0
2017-Nov-14 05:00N 38°08' W 017°27'0 0.0 1023.1 20.0
2017-Nov-14 04:00N 38°08' W 017°27'0 0.0 1023.5 20.0
2017-Nov-14 03:00N 38°08' W 017°27'0 0.0 1023.9 20.0
2017-Nov-14 02:00N 38°08' W 017°27'0 0.0 1024.1 20.0
2017-Nov-14 01:00N 38°08' W 017°27'0 0.0 1024.7 20.0
2017-Nov-14 00:00N 38°08' W 017°27'1 0.6 1024.8 20.0
2017-Nov-13 23:00N 38°07' W 017°27'0 0.5 1025.3 20.0
2017-Nov-13 22:00N 38°07' W 017°26'1 0.6 1025.3 20.0
2017-Nov-13 21:00N 38°07' W 017°26'1 0.8 1025.4 20.1
2017-Nov-13 20:00N 38°07' W 017°26'0 0.5 1025.7 20.0
2017-Nov-13 19:00N 38°07' W 017°25'0 0.5 1025.6 20.1
2017-Nov-13 18:00N 38°07' W 017°25'1 0.8 1025.5 20.1
2017-Nov-13 17:00N 38°08' W 017°24'0 0.0 1025.7 20.1
2017-Nov-13 16:00N 38°08' W 017°24'1 0.8 1025.8 20.1
2017-Nov-13 15:00N 38°08' W 017°23'0 0.0 1025.8 20.1
2017-Nov-13 14:00N 38°08' W 017°23'1 0.6 1026.5 20.1
2017-Nov-13 13:00N 38°09' W 017°23'0 0.0 1027.3 20.1
2017-Nov-13 12:00N 38°09' W 017°23'1 0.6 1028.0 20.1
2017-Nov-13 11:00N 38°10' W 017°23'0 0.0 1028.4 20.1
2017-Nov-13 10:00N 38°10' W 017°23'0 0.0 1028.3 20.1
2017-Nov-13 09:00N 38°10' W 017°23'0 0.0 1028.1 20.2
2017-Nov-13 08:00N 38°10' W 017°23'0 0.0 1027.9 20.1
2017-Nov-13 07:00N 38°10' W 017°23'1 0.6 1027.8 20.1
2017-Nov-13 06:00N 38°10' W 017°23'0 0.0 1027.8 20.1
2017-Nov-13 05:00N 38°10' W 017°23'0 0.5 1027.9 20.1
2017-Nov-13 04:00N 38°10' W 017°23'1 0.6 1028.2 20.1
2017-Nov-13 03:00N 38°11' W 017°23'0 0.0 1028.9 20.1
2017-Nov-13 02:00N 38°11' W 017°23'0 0.5 1029.0 20.2
2017-Nov-13 01:00N 38°11' W 017°22'0 0.0 1029.5 20.2
2017-Nov-13 00:00N 38°11' W 017°22'1 0.8 1029.7 20.2
2017-Nov-12 23:00N 38°11' W 017°22'0 0.0 1029.8 20.2
2017-Nov-12 22:00N 38°11' W 017°22'0 0.0 1029.8 20.2
2017-Nov-12 21:00N 38°11' W 017°22'0 0.5 1029.9 20.2
2017-Nov-12 20:00N 38°11' W 017°21'1 0.6 1029.9 20.2
2017-Nov-12 19:00N 38°12' W 017°21'0 0.5 1030.0 20.1
2017-Nov-12 18:00N 38°12' W 017°20'1 0.8 1029.6 20.1
2017-Nov-12 17:00N 38°13' W 017°20'0 0.0 1029.4 20.1
2017-Nov-12 16:00N 38°13' W 017°20'1 0.6 1029.3 20.1
2017-Nov-12 15:00N 38°13' W 017°20'1 0.6 1029.5 20.2
2017-Nov-12 14:00N 38°14' W 017°20'0 0.0 1029.9 20.1
2017-Nov-12 13:00N 38°14' W 017°20'0 0.0 1030.3 20.1
2017-Nov-12 12:00N 38°14' W 017°20'0 0.0 1031.0 20.2
2017-Nov-12 11:00N 38°14' W 017°20'1 0.6 1031.1 20.2
2017-Nov-12 10:00N 38°14' W 017°20'0 0.0 1030.9 20.2
2017-Nov-12 09:00N 38°14' W 017°20'0 0.0 1030.5 20.2
2017-Nov-12 08:00N 38°14' W 017°20'0 0.0 1030.2 20.2
2017-Nov-12 07:00N 38°14' W 017°20'0 0.0 1030.1 20.2
2017-Nov-12 06:00N 38°14' W 017°20'0 0.0 1030.2 20.2
2017-Nov-12 05:00N 38°14' W 017°20'1 0.8 1030.4 20.3
2017-Nov-12 04:00N 38°15' W 017°19'0 0.0 1030.5 20.2
2017-Nov-12 03:00N 38°15' W 017°19'0 0.5 1031.1 20.2
2017-Nov-12 02:00N 38°15' W 017°19'1 0.6 1030.9 20.2
2017-Nov-12 01:00N 38°16' W 017°19'0 0.5 1031.0 20.2
2017-Nov-12 00:00N 38°16' W 017°18'1 0.6 1031.3 20.2
2017-Nov-11 23:00N 38°16' W 017°18'0 0.0 1031.4 20.1
2017-Nov-11 22:00N 38°16' W 017°18'0 0.5 1031.6 20.1
2017-Nov-11 21:00N 38°16' W 017°19'1 0.6 1031.5 20.1
2017-Nov-11 20:00N 38°17' W 017°19'0 0.0 1031.5 20.1
2017-Nov-11 19:00N 38°17' W 017°19'0 0.0 1031.5 20.1
2017-Nov-11 18:00N 38°17' W 017°19'1 0.8 1031.0 20.1
2017-Nov-11 17:00N 38°17' W 017°18'0 0.0 1031.2 20.1
2017-Nov-11 16:00N 38°17' W 017°18'1 0.6 1031.4 20.1
2017-Nov-11 15:00N 38°18' W 017°18'0 0.0 1031.6 20.1
2017-Nov-11 14:00N 38°18' W 017°18'0 0.5 1032.3 20.1
2017-Nov-11 13:00N 38°18' W 017°19'0 0.0 1032.8 20.1
2017-Nov-11 12:00N 38°18' W 017°19'0 0.0 1033.5 20.1
2017-Nov-11 11:00N 38°18' W 017°19'0 0.5 1033.6 20.1
2017-Nov-11 10:00N 38°18' W 017°18'0 0.0 1033.6 20.1
2017-Nov-11 09:00N 38°18' W 017°18'0 0.5 1033.5 20.1
2017-Nov-11 08:00N 38°18' W 017°17'1 0.6 1033.0 20.1
2017-Nov-11 07:00N 38°19' W 017°17'0 0.0 1032.7 20.1
2017-Nov-11 06:00N 38°19' W 017°17'0 0.0 1032.9 20.1
2017-Nov-11 05:00N 38°19' W 017°17'0 0.5 1032.9 20.2
2017-Nov-11 04:00N 38°19' W 017°17'1 0.6 1033.1 20.2
2017-Nov-11 03:00N 38°19' W 017°17'0 0.0 1033.8 20.3
2017-Nov-11 02:00N 38°19' W 017°17'1 0.8 1034.1 20.3
2017-Nov-11 01:00N 38°20' W 017°16'0 0.0 1034.8 20.4
2017-Nov-11 00:00N 38°20' W 017°16'0 0.0 1034.8 20.4
2017-Nov-10 23:00N 38°20' W 017°16'1 0.6 1035.2 20.4
2017-Nov-10 22:00N 38°20' W 017°16'0 0.0 1035.3 20.4
2017-Nov-10 21:00N 38°20' W 017°16'0 0.0 1035.4 20.3
2017-Nov-10 20:00N 38°20' W 017°16'0 0.0 1035.3 20.3
2017-Nov-10 19:00N 38°20' W 017°16'0 0.5 1034.8 20.3
2017-Nov-10 18:00N 38°20' W 017°16'0 0.0 1034.4 20.2
2017-Nov-10 17:00N 38°20' W 017°16'0 0.5 1034.5 20.2
2017-Nov-10 16:00N 38°20' W 017°15'1 0.6 1034.4 20.1
2017-Nov-10 15:00N 38°21' W 017°15'0 0.5 1034.4 20.1
2017-Nov-10 14:00N 38°21' W 017°14'0 0.5 1034.6 20.1
2017-Nov-10 13:00N 38°21' W 017°14'1 0.6 1035.4 20.1
2017-Nov-10 12:00N 38°22' W 017°14'0 0.5 1036.3 20.1
2017-Nov-10 11:00N 38°22' W 017°13'1 0.6 1036.3 20.0
2017-Nov-10 10:00N 38°22' W 017°13'1 0.8 1036.0 20.0
2017-Nov-10 09:00N 38°23' W 017°13'0 0.0 1035.7 19.9
2017-Nov-10 08:00N 38°23' W 017°13'1 0.8 1035.3 19.9
2017-Nov-10 07:00N 38°23' W 017°12'1 0.6 1034.8 19.9
2017-Nov-10 06:00N 38°24' W 017°12'0 0.0 1034.7 19.9
2017-Nov-10 05:00N 38°24' W 017°12'0 0.0 1034.6 19.9
2017-Nov-10 04:00N 38°24' W 017°12'0 0.0 1034.8 19.8
2017-Nov-10 03:00N 38°24' W 017°12'0 0.5 1034.9 19.8
2017-Nov-10 02:00N 38°24' W 017°11'0 0.0 1035.0 19.8
2017-Nov-10 01:00N 38°24' W 017°11'0 0.5 1035.3 19.8
2017-Nov-10 00:00N 38°24' W 017°11'1 0.6 1035.5 19.8
2017-Nov-09 23:00N 38°25' W 017°11'0 0.5 1035.5 19.8
2017-Nov-09 22:00N 38°25' W 017°10'1 0.6 1035.4 19.8
2017-Nov-09 21:00N 38°25' W 017°10'1 0.8 1034.9 19.8
2017-Nov-09 20:00N 38°26' W 017°10'0 0.0 1034.7 19.8
2017-Nov-09 19:00N 38°26' W 017°10'0 0.0 1034.2 19.7
2017-Nov-09 18:00N 38°26' W 017°10'1 0.8 1033.9 19.7
2017-Nov-09 17:00N 38°26' W 017°09'0 0.0 1033.3 19.7
2017-Nov-09 16:00N 38°26' W 017°09'0 0.5 1033.3 19.7
2017-Nov-09 15:00N 38°26' W 017°08'   1033.3 19.7
Track history (hours):
 
Tides and Currents Weather Stations Pressure Air Temp Water Temp Dewpoint Dewpoint Depression Visibility Wind Speed Wind Dir Waves Ship Positions

Drifting buoy 47574

Last reported at 2017-Nov-19 15:00 UTC. Time now 2017-Nov-19 16:03 UTC.
Position N 38°10' W 018°14'.

Barometer 1021.0 mb
Water temperature 20.1 ° C

Date/timePositionNaut miles runAvg speedWind from/ knotsBaromVisibWave heightAir tempDewpointWater temp
2017-Nov-19 15:00N 38°10' W 018°14'0 0.0 1021.0 20.1
2017-Nov-19 14:00N 38°10' W 018°14'1 0.8 1021.6 20.1
2017-Nov-19 13:00N 38°09' W 018°13'0 0.0 1022.4 20.0
2017-Nov-19 12:00N 38°09' W 018°13'0 0.5 1022.9 20.0
2017-Nov-19 11:00N 38°09' W 018°13'0 0.5 1023.1 20.0
2017-Nov-19 10:00N 38°09' W 018°12'0 0.5 1023.1 19.9
2017-Nov-19 09:00N 38°09' W 018°11'0 0.5 1022.6 19.9
2017-Nov-19 08:00N 38°09' W 018°11'1 0.8 1021.9 19.9
2017-Nov-19 07:00N 38°10' W 018°10'0 0.5 1021.1 19.9
2017-Nov-19 06:00N 38°10' W 018°10'0 0.0 1021.1 19.9
2017-Nov-19 05:00N 38°10' W 018°10'1 0.8 1020.9 19.9
2017-Nov-19 04:00N 38°10' W 018°09'0 0.0 1021.0 19.9
2017-Nov-19 03:00N 38°10' W 018°09'1 0.6 1021.2 19.9
2017-Nov-19 02:00N 38°10' W 018°09'0 0.5 1021.1 20.0
2017-Nov-19 01:00N 38°10' W 018°08'0 0.0 1021.6 20.0
2017-Nov-19 00:00N 38°10' W 018°08'0 0.0 1021.8 20.0
2017-Nov-18 23:00N 38°10' W 018°08'1 0.8 1022.0 20.0
2017-Nov-18 22:00N 38°09' W 018°08'0 0.0 1021.8 20.1
2017-Nov-18 21:00N 38°09' W 018°08'0 0.5 1021.7 20.1
2017-Nov-18 20:00N 38°09' W 018°07'0 0.5 1021.3 20.1
2017-Nov-18 19:00N 38°09' W 018°07'0 0.5 1020.9 20.1
2017-Nov-18 18:00N 38°09' W 018°06'1 0.8 1020.8 20.1
2017-Nov-18 17:00N 38°10' W 018°05'0 0.0 1020.7 20.1
2017-Nov-18 16:00N 38°10' W 018°05'0 0.5 1020.6 20.0
2017-Nov-18 15:00N 38°10' W 018°05'0 0.0 1020.6 20.0
2017-Nov-18 14:00N 38°10' W 018°05'1 0.8 1021.0 20.0
2017-Nov-18 13:00N 38°09' W 018°04'0 0.5 1021.4 20.0
2017-Nov-18 12:00N 38°09' W 018°04'0 0.0 1021.8 20.0
2017-Nov-18 11:00N 38°09' W 018°04'0 0.5 1021.5 20.0
2017-Nov-18 10:00N 38°09' W 018°03'0 0.5 1021.2 20.0
2017-Nov-18 09:00N 38°09' W 018°02'0 0.5 1020.6 20.0
2017-Nov-18 08:00N 38°09' W 018°02'1 0.6 1020.3 20.0
2017-Nov-18 07:00N 38°10' W 018°02'0 0.0 1020.0 20.0
2017-Nov-18 06:00N 38°10' W 018°02'0 0.5 1020.3 20.0
2017-Nov-18 05:00N 38°10' W 018°01'0 0.0 1020.3 20.0
2017-Nov-18 04:00N 38°10' W 018°01'0 0.0 1020.4 20.0
2017-Nov-18 03:00N 38°10' W 018°01'1 0.6 1020.6 20.0
2017-Nov-18 02:00N 38°09' W 018°01'0 0.5 1020.6 20.0
2017-Nov-18 01:00N 38°09' W 018°01'1 0.6 1021.0 20.0
2017-Nov-18 00:00N 38°08' W 018°01'1 0.8 1021.2 20.0
2017-Nov-17 23:00N 38°08' W 018°00'0 0.5 1021.2 20.0
2017-Nov-17 22:00N 38°08' W 017°59'1 1.1 1021.3 20.0
2017-Nov-17 21:00N 38°07' W 017°58'1 1.1 1021.0 20.0
2017-Nov-17 20:00N 38°08' W 017°57'0 0.5 1020.8 20.0
2017-Nov-17 19:00N 38°08' W 017°56'1 0.8 1020.6 20.0
2017-Nov-17 18:00N 38°08' W 017°56'0 0.0 1020.2 20.0
2017-Nov-17 17:00N 38°08' W 017°56'0 0.0 1020.1 20.0
2017-Nov-17 16:00N 38°08' W 017°56'0 0.0 1019.8 20.0
2017-Nov-17 15:00N 38°08' W 017°56'0 0.0 1019.9 20.0
2017-Nov-17 14:00N 38°08' W 017°56'0 0.0 1020.2 20.0
2017-Nov-17 13:00N 38°08' W 017°56'1 0.8 1021.1 20.0
2017-Nov-17 12:00N 38°08' W 017°55'1 0.6 1021.8 20.0
2017-Nov-17 11:00N 38°07' W 017°55'0 0.5 1021.8 20.0
2017-Nov-17 10:00N 38°07' W 017°55'0 0.5 1021.3 20.0
2017-Nov-17 09:00N 38°07' W 017°54'0 0.5 1021.4 20.0
2017-Nov-17 08:00N 38°07' W 017°53'0 0.5 1020.9 19.9
2017-Nov-17 07:00N 38°07' W 017°53'0 0.5 1020.7 20.0
2017-Nov-17 06:00N 38°07' W 017°52'0 0.5 1020.5 20.0
2017-Nov-17 05:00N 38°07' W 017°52'0 0.0 1020.2 20.0
2017-Nov-17 04:00N 38°07' W 017°52'0 0.2 1020.1 20.0
2017-Nov-17 02:00N 38°07' W 017°51'1 0.8 1020.3 20.0
2017-Nov-17 01:00N 38°07' W 017°50'0 0.0 1020.7 20.0
2017-Nov-17 00:00N 38°07' W 017°50'1 0.8 1021.1 20.0
2017-Nov-16 23:00N 38°06' W 017°50'0 0.5 1021.1 20.1
2017-Nov-16 22:00N 38°06' W 017°49'0 0.5 1021.0 20.1
2017-Nov-16 21:00N 38°06' W 017°49'0 0.5 1020.6 20.1
2017-Nov-16 20:00N 38°06' W 017°48'1 0.8 1020.4 20.1
2017-Nov-16 19:00N 38°07' W 017°47'0 0.5 1020.2 20.1
2017-Nov-16 18:00N 38°07' W 017°47'0 0.5 1019.6 20.1
2017-Nov-16 17:00N 38°07' W 017°46'0 0.0 1019.5 20.1
2017-Nov-16 16:00N 38°07' W 017°46'0 0.5 1019.3 20.1
2017-Nov-16 15:00N 38°07' W 017°46'1 0.6 1019.0 20.0
2017-Nov-16 14:00N 38°06' W 017°46'1 0.6 1019.2 20.0
2017-Nov-16 13:00N 38°05' W 017°46'0 0.5 1019.7 20.0
2017-Nov-16 12:00N 38°05' W 017°45'1 0.6 1020.3 20.0
2017-Nov-16 11:00N 38°05' W 017°45'0 0.5 1020.5 20.0
2017-Nov-16 10:00N 38°05' W 017°44'0 0.0 1020.3 20.0
2017-Nov-16 09:00N 38°05' W 017°44'1 0.8 1019.8 20.0
2017-Nov-16 08:00N 38°04' W 017°44'0 0.5 1019.3 20.0
2017-Nov-16 07:00N 38°04' W 017°43'0 0.5 1018.9 20.0
2017-Nov-16 06:00N 38°04' W 017°43'0 0.5 1018.4 20.0
2017-Nov-16 05:00N 38°04' W 017°42'0 0.0 1018.3 20.0
2017-Nov-16 04:00N 38°04' W 017°42'0 0.5 1018.4 20.0
2017-Nov-16 03:00N 38°04' W 017°41'0 0.0 1018.5 20.0
2017-Nov-16 02:00N 38°04' W 017°41'0 0.0 1018.6 20.0
2017-Nov-16 01:00N 38°04' W 017°41'1 0.6 1019.1 20.0
2017-Nov-16 00:00N 38°04' W 017°41'0 0.5 1019.1 20.0
2017-Nov-15 23:00N 38°04' W 017°41'0 0.0 1019.4 20.0
2017-Nov-15 22:00N 38°04' W 017°41'0 0.5 1019.5 20.0
2017-Nov-15 21:00N 38°04' W 017°40'0 0.5 1019.3 20.1
2017-Nov-15 20:00N 38°04' W 017°40'1 0.6 1019.0 20.1
2017-Nov-15 19:00N 38°04' W 017°40'0 0.5 1018.5 20.1
2017-Nov-15 18:00N 38°04' W 017°39'0 0.5 1017.6 20.0
2017-Nov-15 17:00N 38°04' W 017°40'0 0.5 1017.4 20.0
2017-Nov-15 16:00N 38°04' W 017°39'1 0.6 1017.2 20.1
2017-Nov-15 15:00N 38°04' W 017°39'0 0.0 1017.6 20.1
2017-Nov-15 14:00N 38°04' W 017°39'1 0.6 1018.5 20.1
2017-Nov-15 13:00N 38°03' W 017°39'0 0.5 1019.1 20.1
2017-Nov-15 12:00N 38°03' W 017°38'1 0.8 1019.9 20.1
2017-Nov-15 11:00N 38°02' W 017°38'0 0.5 1020.2 20.1
2017-Nov-15 10:00N 38°02' W 017°37'0 0.5 1020.5 20.1
2017-Nov-15 09:00N 38°02' W 017°37'0 0.5 1020.1 20.1
2017-Nov-15 08:00N 38°02' W 017°36'1 0.8 1019.9 20.1
2017-Nov-15 07:00N 38°03' W 017°35'0 0.0 1019.7 20.1
2017-Nov-15 06:00N 38°03' W 017°35'1 0.8 1019.3 20.1
2017-Nov-15 05:00N 38°04' W 017°35'0 0.0 1019.3 20.1
2017-Nov-15 04:00N 38°04' W 017°35'1 0.8 1019.6 20.1
2017-Nov-15 03:00N 38°04' W 017°34'0 0.0 1019.7 20.1
2017-Nov-15 02:00N 38°04' W 017°34'0 0.0 1019.8 20.1
2017-Nov-15 01:00N 38°04' W 017°34'0 0.5 1020.1 20.1
2017-Nov-15 00:00N 38°04' W 017°34'0 0.5 1020.6 20.1
2017-Nov-14 23:00N 38°04' W 017°33'1 0.8 1021.0 20.1
2017-Nov-14 22:00N 38°05' W 017°32'0 0.0 1021.5 20.1
2017-Nov-14 21:00N 38°05' W 017°32'1 0.8 1021.1 20.1
2017-Nov-14 20:00N 38°05' W 017°32'0 0.0 1021.0 20.1
2017-Nov-14 19:00N 38°05' W 017°32'1 0.6 1021.0 20.2
2017-Nov-14 18:00N 38°06' W 017°32'0 0.5 1020.7 20.2
2017-Nov-14 17:00N 38°06' W 017°31'0 0.0 1020.6 20.2
2017-Nov-14 16:00N 38°06' W 017°31'1 0.6 1020.8 20.2
2017-Nov-14 15:00N 38°05' W 017°31'0 0.0 1021.1 20.2
2017-Nov-14 14:00N 38°05' W 017°31'0 0.5 1021.7 20.2
2017-Nov-14 13:00N 38°05' W 017°31'0 0.5 1022.3 20.2
2017-Nov-14 12:00N 38°05' W 017°30'1 0.8 1023.0 20.1
2017-Nov-14 11:00N 38°05' W 017°29'1 1.1 1023.4 20.1
2017-Nov-14 10:00N 38°05' W 017°28'0 0.5 1023.5 20.0
2017-Nov-14 09:00N 38°05' W 017°28'1 0.8 1023.2 20.0
2017-Nov-14 08:00N 38°06' W 017°27'1 0.6 1023.1 20.0
2017-Nov-14 07:00N 38°07' W 017°27'1 0.6 1023.1 20.0
2017-Nov-14 06:00N 38°07' W 017°27'1 0.6 1023.1 20.0
2017-Nov-14 05:00N 38°08' W 017°27'0 0.0 1023.1 20.0
2017-Nov-14 04:00N 38°08' W 017°27'0 0.0 1023.5 20.0
2017-Nov-14 03:00N 38°08' W 017°27'0 0.0 1023.9 20.0
2017-Nov-14 02:00N 38°08' W 017°27'0 0.0 1024.1 20.0
2017-Nov-14 01:00N 38°08' W 017°27'0 0.0 1024.7 20.0
2017-Nov-14 00:00N 38°08' W 017°27'1 0.6 1024.8 20.0
2017-Nov-13 23:00N 38°07' W 017°27'0 0.5 1025.3 20.0
2017-Nov-13 22:00N 38°07' W 017°26'1 0.6 1025.3 20.0
2017-Nov-13 21:00N 38°07' W 017°26'1 0.8 1025.4 20.1
2017-Nov-13 20:00N 38°07' W 017°26'0 0.5 1025.7 20.0
2017-Nov-13 19:00N 38°07' W 017°25'0 0.5 1025.6 20.1
2017-Nov-13 18:00N 38°07' W 017°25'1 0.8 1025.5 20.1
2017-Nov-13 17:00N 38°08' W 017°24'0 0.0 1025.7 20.1
2017-Nov-13 16:00N 38°08' W 017°24'1 0.8 1025.8 20.1
2017-Nov-13 15:00N 38°08' W 017°23'0 0.0 1025.8 20.1
2017-Nov-13 14:00N 38°08' W 017°23'1 0.6 1026.5 20.1
2017-Nov-13 13:00N 38°09' W 017°23'0 0.0 1027.3 20.1
2017-Nov-13 12:00N 38°09' W 017°23'1 0.6 1028.0 20.1
2017-Nov-13 11:00N 38°10' W 017°23'0 0.0 1028.4 20.1
2017-Nov-13 10:00N 38°10' W 017°23'0 0.0 1028.3 20.1
2017-Nov-13 09:00N 38°10' W 017°23'0 0.0 1028.1 20.2
2017-Nov-13 08:00N 38°10' W 017°23'0 0.0 1027.9 20.1
2017-Nov-13 07:00N 38°10' W 017°23'1 0.6 1027.8 20.1
2017-Nov-13 06:00N 38°10' W 017°23'0 0.0 1027.8 20.1
2017-Nov-13 05:00N 38°10' W 017°23'0 0.5 1027.9 20.1
2017-Nov-13 04:00N 38°10' W 017°23'1 0.6 1028.2 20.1
2017-Nov-13 03:00N 38°11' W 017°23'0 0.0 1028.9 20.1
2017-Nov-13 02:00N 38°11' W 017°23'0 0.5 1029.0 20.2
2017-Nov-13 01:00N 38°11' W 017°22'0 0.0 1029.5 20.2
2017-Nov-13 00:00N 38°11' W 017°22'1 0.8 1029.7 20.2
2017-Nov-12 23:00N 38°11' W 017°22'0 0.0 1029.8 20.2
2017-Nov-12 22:00N 38°11' W 017°22'0 0.0 1029.8 20.2
2017-Nov-12 21:00N 38°11' W 017°22'0 0.5 1029.9 20.2
2017-Nov-12 20:00N 38°11' W 017°21'1 0.6 1029.9 20.2
2017-Nov-12 19:00N 38°12' W 017°21'0 0.5 1030.0 20.1
2017-Nov-12 18:00N 38°12' W 017°20'1 0.8 1029.6 20.1
2017-Nov-12 17:00N 38°13' W 017°20'0 0.0 1029.4 20.1
2017-Nov-12 16:00N 38°13' W 017°20'1 0.6 1029.3 20.1
2017-Nov-12 15:00N 38°13' W 017°20'1 0.6 1029.5 20.2
2017-Nov-12 14:00N 38°14' W 017°20'0 0.0 1029.9 20.1
2017-Nov-12 13:00N 38°14' W 017°20'0 0.0 1030.3 20.1
2017-Nov-12 12:00N 38°14' W 017°20'0 0.0 1031.0 20.2
2017-Nov-12 11:00N 38°14' W 017°20'1 0.6 1031.1 20.2
2017-Nov-12 10:00N 38°14' W 017°20'0 0.0 1030.9 20.2
2017-Nov-12 09:00N 38°14' W 017°20'0 0.0 1030.5 20.2
2017-Nov-12 08:00N 38°14' W 017°20'0 0.0 1030.2 20.2
2017-Nov-12 07:00N 38°14' W 017°20'0 0.0 1030.1 20.2
2017-Nov-12 06:00N 38°14' W 017°20'0 0.0 1030.2 20.2
2017-Nov-12 05:00N 38°14' W 017°20'1 0.8 1030.4 20.3
2017-Nov-12 04:00N 38°15' W 017°19'0 0.0 1030.5 20.2
2017-Nov-12 03:00N 38°15' W 017°19'0 0.5 1031.1 20.2
2017-Nov-12 02:00N 38°15' W 017°19'1 0.6 1030.9 20.2
2017-Nov-12 01:00N 38°16' W 017°19'0 0.5 1031.0 20.2
2017-Nov-12 00:00N 38°16' W 017°18'1 0.6 1031.3 20.2
2017-Nov-11 23:00N 38°16' W 017°18'0 0.0 1031.4 20.1
2017-Nov-11 22:00N 38°16' W 017°18'0 0.5 1031.6 20.1
2017-Nov-11 21:00N 38°16' W 017°19'1 0.6 1031.5 20.1
2017-Nov-11 20:00N 38°17' W 017°19'0 0.0 1031.5 20.1
2017-Nov-11 19:00N 38°17' W 017°19'0 0.0 1031.5 20.1
2017-Nov-11 18:00N 38°17' W 017°19'1 0.8 1031.0 20.1
2017-Nov-11 17:00N 38°17' W 017°18'0 0.0 1031.2 20.1
2017-Nov-11 16:00N 38°17' W 017°18'1 0.6 1031.4 20.1
2017-Nov-11 15:00N 38°18' W 017°18'0 0.0 1031.6 20.1
2017-Nov-11 14:00N 38°18' W 017°18'0 0.5 1032.3 20.1
2017-Nov-11 13:00N 38°18' W 017°19'0 0.0 1032.8 20.1
2017-Nov-11 12:00N 38°18' W 017°19'0 0.0 1033.5 20.1
2017-Nov-11 11:00N 38°18' W 017°19'0 0.5 1033.6 20.1
2017-Nov-11 10:00N 38°18' W 017°18'0 0.0 1033.6 20.1
2017-Nov-11 09:00N 38°18' W 017°18'0 0.5 1033.5 20.1
2017-Nov-11 08:00N 38°18' W 017°17'1 0.6 1033.0 20.1
2017-Nov-11 07:00N 38°19' W 017°17'0 0.0 1032.7 20.1
2017-Nov-11 06:00N 38°19' W 017°17'0 0.0 1032.9 20.1
2017-Nov-11 05:00N 38°19' W 017°17'0 0.5 1032.9 20.2
2017-Nov-11 04:00N 38°19' W 017°17'1 0.6 1033.1 20.2
2017-Nov-11 03:00N 38°19' W 017°17'0 0.0 1033.8 20.3
2017-Nov-11 02:00N 38°19' W 017°17'1 0.8 1034.1 20.3
2017-Nov-11 01:00N 38°20' W 017°16'0 0.0 1034.8 20.4
2017-Nov-11 00:00N 38°20' W 017°16'0 0.0 1034.8 20.4
2017-Nov-10 23:00N 38°20' W 017°16'1 0.6 1035.2 20.4
2017-Nov-10 22:00N 38°20' W 017°16'0 0.0 1035.3 20.4
2017-Nov-10 21:00N 38°20' W 017°16'0 0.0 1035.4 20.3
2017-Nov-10 20:00N 38°20' W 017°16'0 0.0 1035.3 20.3
2017-Nov-10 19:00N 38°20' W 017°16'0 0.5 1034.8 20.3
2017-Nov-10 18:00N 38°20' W 017°16'0 0.0 1034.4 20.2
2017-Nov-10 17:00N 38°20' W 017°16'0 0.5 1034.5 20.2
2017-Nov-10 16:00N 38°20' W 017°15'1 0.6 1034.4 20.1
2017-Nov-10 15:00N 38°21' W 017°15'0 0.5 1034.4 20.1
2017-Nov-10 14:00N 38°21' W 017°14'0 0.5 1034.6 20.1
2017-Nov-10 13:00N 38°21' W 017°14'1 0.6 1035.4 20.1
2017-Nov-10 12:00N 38°22' W 017°14'0 0.5 1036.3 20.1
2017-Nov-10 11:00N 38°22' W 017°13'1 0.6 1036.3 20.0
2017-Nov-10 10:00N 38°22' W 017°13'1 0.8 1036.0 20.0
2017-Nov-10 09:00N 38°23' W 017°13'0 0.0 1035.7 19.9
2017-Nov-10 08:00N 38°23' W 017°13'1 0.8 1035.3 19.9
2017-Nov-10 07:00N 38°23' W 017°12'1 0.6 1034.8 19.9
2017-Nov-10 06:00N 38°24' W 017°12'0 0.0 1034.7 19.9
2017-Nov-10 05:00N 38°24' W 017°12'0 0.0 1034.6 19.9
2017-Nov-10 04:00N 38°24' W 017°12'0 0.0 1034.8 19.8
2017-Nov-10 03:00N 38°24' W 017°12'0 0.5 1034.9 19.8
2017-Nov-10 02:00N 38°24' W 017°11'0 0.0 1035.0 19.8
2017-Nov-10 01:00N 38°24' W 017°11'0 0.5 1035.3 19.8
2017-Nov-10 00:00N 38°24' W 017°11'1 0.6 1035.5 19.8
2017-Nov-09 23:00N 38°25' W 017°11'0 0.5 1035.5 19.8
2017-Nov-09 22:00N 38°25' W 017°10'1 0.6 1035.4 19.8
2017-Nov-09 21:00N 38°25' W 017°10'1 0.8 1034.9 19.8
2017-Nov-09 20:00N 38°26' W 017°10'0 0.0 1034.7 19.8
2017-Nov-09 19:00N 38°26' W 017°10'0 0.0 1034.2 19.7
2017-Nov-09 18:00N 38°26' W 017°10'1 0.8 1033.9 19.7
2017-Nov-09 17:00N 38°26' W 017°09'0 0.0 1033.3 19.7
2017-Nov-09 16:00N 38°26' W 017°09'0 0.5 1033.3 19.7
2017-Nov-09 15:00N 38°26' W 017°08'   1033.3 19.7

Dump ship's entire track history